createdAt,value
2023-02-11T00:00:29.660Z,102644.31640625
2023-02-11T00:01:29.360Z,102645.46875
2023-02-11T00:02:29.392Z,102643.10546875
2023-02-11T00:03:29.496Z,102636.87890625
2023-02-11T00:04:31.719Z,102634.546875
2023-02-11T00:05:29.689Z,102634.3515625
2023-02-11T00:06:29.464Z,102634.375
2023-02-11T00:07:29.388Z,102637.140625
2023-02-11T00:08:29.398Z,102635.1171875
2023-02-11T00:09:31.827Z,102636.2109375
2023-02-11T00:10:29.687Z,102631.73046875
2023-02-11T00:11:29.324Z,102634.2734375
2023-02-11T00:12:29.420Z,102632.640625
2023-02-11T00:13:29.437Z,102631.5390625
2023-02-11T00:14:29.408Z,102625.93359375
2023-02-11T00:15:31.908Z,102627.8984375
2023-02-11T00:16:29.516Z,102624.703125
2023-02-11T00:17:29.324Z,102629.640625
2023-02-11T00:18:29.300Z,102634.30078125
2023-02-11T00:19:29.444Z,102630.171875
2023-02-11T00:20:29.669Z,102628.12890625
2023-02-11T00:21:29.437Z,102626.5390625
2023-02-11T00:22:29.351Z,102630.94921875
2023-02-11T00:23:29.330Z,102632.50390625
2023-02-11T00:24:29.446Z,102629.14453125
2023-02-11T00:25:29.683Z,102624.953125
2023-02-11T00:26:31.679Z,102622.83984375
2023-02-11T00:27:29.422Z,102619.55859375
2023-02-11T00:28:29.350Z,102616.75390625
2023-02-11T00:29:29.418Z,102619.609375
2023-02-11T00:30:29.753Z,102622.57421875
2023-02-11T00:31:29.575Z,102621.359375
2023-02-11T00:32:29.393Z,102624.29296875
2023-02-11T00:33:29.386Z,102624.7578125
2023-02-11T00:34:29.439Z,102623.484375
2023-02-11T00:35:29.662Z,102621.16796875
2023-02-11T00:36:29.352Z,102618.41015625
2023-02-11T00:37:31.645Z,102617.72265625
2023-02-11T00:38:29.437Z,102621.23046875
2023-02-11T00:39:29.369Z,102619.59375
2023-02-11T00:40:29.346Z,102619.2734375
2023-02-11T00:41:29.314Z,102619.8671875
2023-02-11T00:42:29.442Z,102618.1015625
2023-02-11T00:43:29.325Z,102619.60546875
2023-02-11T00:44:29.337Z,102612.31640625
2023-02-11T00:45:29.666Z,102615.34375
2023-02-11T00:46:29.422Z,102616.39453125
2023-02-11T00:47:29.428Z,102613.43359375
2023-02-11T00:48:31.627Z,102611.55859375
2023-02-11T00:49:29.370Z,102613.0703125
2023-02-11T00:50:29.675Z,102613.08984375
2023-02-11T00:51:29.384Z,102610.01953125
2023-02-11T00:52:29.443Z,102608.98828125
2023-02-11T00:53:29.417Z,102606.6484375
2023-02-11T00:54:30.078Z,102598.78125
2023-02-11T00:55:29.668Z,102598.79296875
2023-02-11T00:56:29.404Z,102601.63671875
2023-02-11T00:57:29.354Z,102599.25
2023-02-11T00:58:29.331Z,102597.265625
2023-02-11T00:59:31.751Z,102591.59375
2023-02-11T01:00:29.672Z,102589.16015625
2023-02-11T01:01:29.530Z,102589.90234375
2023-02-11T01:02:29.347Z,102594.50390625
2023-02-11T01:03:29.388Z,102597.53125
2023-02-11T01:04:29.344Z,102599.91015625
2023-02-11T01:05:29.825Z,102600.5625
2023-02-11T01:06:29.310Z,102601.52734375
2023-02-11T01:07:29.390Z,102601.27734375
2023-02-11T01:08:29.370Z,102603.40234375
2023-02-11T01:09:29.372Z,102602.34765625
2023-02-11T01:10:34.142Z,102600.55078125
2023-02-11T01:11:29.484Z,102597.19140625
2023-02-11T01:12:29.405Z,102596.0390625
2023-02-11T01:13:29.333Z,102599.00390625
2023-02-11T01:14:29.331Z,102595.953125
2023-02-11T01:15:29.886Z,102595.63671875
2023-02-11T01:16:29.407Z,102594.16015625
2023-02-11T01:17:29.374Z,102593.98828125
2023-02-11T01:18:29.412Z,102592.21484375
2023-02-11T01:19:29.441Z,102588.41796875
2023-02-11T01:20:29.668Z,102588.4375
2023-02-11T01:21:31.710Z,102591.27734375
2023-02-11T01:22:29.354Z,102587.57421875
2023-02-11T01:23:29.350Z,102590.6484375
2023-02-11T01:24:29.433Z,102589.046875
2023-02-11T01:25:29.674Z,102592.05859375
2023-02-11T01:26:29.322Z,102592.921875
2023-02-11T01:27:29.439Z,102589.8125
2023-02-11T01:28:29.397Z,102589.48046875
2023-02-11T01:29:29.284Z,102589.203125
2023-02-11T01:30:29.664Z,102585.64453125
2023-02-11T01:31:29.436Z,102585.26171875
2023-02-11T01:32:31.676Z,102582.80859375
2023-02-11T01:33:29.335Z,102581.5625
2023-02-11T01:34:29.314Z,102582.3984375
2023-02-11T01:35:29.673Z,102580.76953125
2023-02-11T01:36:29.355Z,102587.28515625
2023-02-11T01:37:29.363Z,102586.37890625
2023-02-11T01:38:29.441Z,102587.84765625
2023-02-11T01:39:29.462Z,102585.28125
2023-02-11T01:40:29.670Z,102586.31640625
2023-02-11T01:41:29.410Z,102584.6875
2023-02-11T01:42:29.308Z,102582.8046875
2023-02-11T01:43:31.738Z,102574.21875
2023-02-11T01:44:29.377Z,102572.9375
2023-02-11T01:45:29.670Z,102569.0234375
2023-02-11T01:46:29.465Z,102564.2578125
2023-02-11T01:47:29.478Z,102564.81640625
2023-02-11T01:48:29.478Z,102562.55078125
2023-02-11T01:49:29.477Z,102562.67578125
2023-02-11T01:50:29.668Z,102563.6484375
2023-02-11T01:51:29.436Z,102564.12109375
2023-02-11T01:52:29.350Z,102562.36328125
2023-02-11T01:53:29.448Z,102559.8046875
2023-02-11T01:54:31.672Z,102554.0546875
2023-02-11T01:55:29.680Z,102555.1328125
2023-02-11T01:56:29.389Z,102555.421875
2023-02-11T01:57:29.383Z,102551.94921875
2023-02-11T01:58:29.341Z,102556.48046875
2023-02-11T01:59:29.319Z,102555.24609375
2023-02-11T02:00:29.690Z,102558.78515625
2023-02-11T02:01:29.475Z,102556.13671875
2023-02-11T02:02:29.442Z,102554.10546875
2023-02-11T02:03:29.435Z,102553.41796875
2023-02-11T02:04:29.384Z,102553.0234375
2023-02-11T02:05:34.174Z,102553.8125
2023-02-11T02:06:29.336Z,102552.47265625
2023-02-11T02:07:29.456Z,102548.609375
2023-02-11T02:08:29.345Z,102549.1171875
2023-02-11T02:09:29.418Z,102546.234375
2023-02-11T02:10:29.674Z,102543.81640625
2023-02-11T02:11:29.348Z,102545.91796875
2023-02-11T02:12:29.382Z,102540.61328125
2023-02-11T02:13:29.411Z,102536.44921875
2023-02-11T02:14:29.395Z,102537.4765625
2023-02-11T02:15:29.670Z,102534.01171875
2023-02-11T02:16:31.681Z,102537.6015625
2023-02-11T02:17:29.443Z,102539.68359375
2023-02-11T02:18:29.424Z,102537.3515625
2023-02-11T02:19:29.329Z,102535.6171875
2023-02-11T02:20:29.667Z,102531.08984375
2023-02-11T02:21:29.462Z,102534.39453125
2023-02-11T02:22:29.377Z,102531.60546875
2023-02-11T02:23:29.336Z,102531.13671875
2023-02-11T02:24:29.448Z,102526.921875
2023-02-11T02:25:29.671Z,102528.52734375
2023-02-11T02:26:29.367Z,102527.42578125
2023-02-11T02:27:31.738Z,102520.38671875
2023-02-11T02:28:29.475Z,102531.7734375
2023-02-11T02:29:29.397Z,102527.0546875
2023-02-11T02:30:29.681Z,102529.4921875
2023-02-11T02:31:29.410Z,102526.21875
2023-02-11T02:32:29.415Z,102523.04296875
2023-02-11T02:33:29.377Z,102520.609375
2023-02-11T02:34:29.410Z,102519.45703125
2023-02-11T02:35:29.680Z,102520.2890625
2023-02-11T02:36:29.343Z,102517.61328125
2023-02-11T02:37:29.333Z,102518.33203125
2023-02-11T02:38:31.703Z,102515.69921875
2023-02-11T02:39:29.421Z,102523.87890625
2023-02-11T02:40:29.663Z,102519.84765625
2023-02-11T02:41:29.375Z,102518.41796875
2023-02-11T02:42:29.336Z,102526.46484375
2023-02-11T02:43:29.335Z,102527.73046875
2023-02-11T02:44:29.442Z,102526.25390625
2023-02-11T02:45:29.682Z,102525.62890625
2023-02-11T02:46:29.380Z,102536.87109375
2023-02-11T02:47:29.339Z,102538.3125
2023-02-11T02:48:29.433Z,102544.73828125
2023-02-11T02:49:31.635Z,102541.65625
2023-02-11T02:50:29.663Z,102540.91796875
2023-02-11T02:51:29.405Z,102540.83984375
2023-02-11T02:52:29.410Z,102539.328125
2023-02-11T02:53:29.323Z,102537.78125
2023-02-11T02:54:29.354Z,102531.35546875
2023-02-11T02:55:29.678Z,102531.7734375
2023-02-11T02:56:29.405Z,102531.61328125
2023-02-11T02:57:29.430Z,102534.20703125
2023-02-11T02:58:29.408Z,102522.03515625
2023-02-11T02:59:29.442Z,102529.48046875
2023-02-11T03:00:31.840Z,102534.49609375
2023-02-11T03:01:29.432Z,102526.21484375
2023-02-11T03:02:29.451Z,102528.63671875
2023-02-11T03:03:29.358Z,102528.78515625
2023-02-11T03:04:29.431Z,102529.30859375
2023-02-11T03:05:29.675Z,102528.64453125
2023-02-11T03:06:29.395Z,102530.91796875
2023-02-11T03:07:29.387Z,102531.96875
2023-02-11T03:08:29.347Z,102533.78515625
2023-02-11T03:09:29.435Z,102534.23828125
2023-02-11T03:10:29.684Z,102534.671875
2023-02-11T03:11:31.689Z,102536.984375
2023-02-11T03:12:29.314Z,102539.77734375
2023-02-11T03:13:29.437Z,102537.5078125
2023-02-11T03:14:29.410Z,102535.296875
2023-02-11T03:15:29.672Z,102534.6640625
2023-02-11T03:16:29.371Z,102532.25
2023-02-11T03:17:29.359Z,102529.1328125
2023-02-11T03:18:29.455Z,102526.90234375
2023-02-11T03:19:29.456Z,102526.70703125
2023-02-11T03:20:29.674Z,102529.97265625
2023-02-11T03:21:29.349Z,102525.8203125
2023-02-11T03:22:31.739Z,102528.60546875
2023-02-11T03:23:29.354Z,102524.83203125
2023-02-11T03:24:29.330Z,102525.19140625
2023-02-11T03:25:29.325Z,102528.703125
2023-02-11T03:26:29.354Z,102521.45703125
2023-02-11T03:27:29.455Z,102517.453125
2023-02-11T03:28:29.453Z,102515.96484375
2023-02-11T03:29:29.404Z,102508.80078125
2023-02-11T03:30:29.670Z,102511.79296875
2023-02-11T03:31:29.432Z,102508.39453125
2023-02-11T03:32:29.415Z,102497.80078125
2023-02-11T03:33:31.652Z,102493.71875
2023-02-11T03:34:29.377Z,102490.05078125
2023-02-11T03:35:29.676Z,102486.80078125
2023-02-11T03:36:29.408Z,102480.27734375
2023-02-11T03:37:29.337Z,102476.421875
2023-02-11T03:38:29.336Z,102470.296875
2023-02-11T03:39:29.446Z,102471.78125
2023-02-11T03:40:29.723Z,102463.34765625
2023-02-11T03:41:29.468Z,102466.23828125
2023-02-11T03:42:29.314Z,102466.46875
2023-02-11T03:43:29.441Z,102465.08203125
2023-02-11T03:44:31.733Z,102462.6640625
2023-02-11T03:45:29.739Z,102459.8515625
2023-02-11T03:46:29.384Z,102458.07421875
2023-02-11T03:47:29.392Z,102456.53515625
2023-02-11T03:48:29.446Z,102450.625
2023-02-11T03:49:29.433Z,102449.12890625
2023-02-11T03:50:29.699Z,102448.21484375
2023-02-11T03:51:29.439Z,102444.59765625
2023-02-11T03:52:29.445Z,102442.296875
2023-02-11T03:53:29.428Z,102439.1484375
2023-02-11T03:54:29.333Z,102438.1484375
2023-02-11T03:55:34.118Z,102432.4921875
2023-02-11T03:56:29.333Z,102425.41796875
2023-02-11T03:57:29.376Z,102420.28125
2023-02-11T03:58:29.346Z,102419.6328125
2023-02-11T03:59:29.312Z,102421.84375
2023-02-11T04:00:29.689Z,102419.80859375
2023-02-11T04:01:29.494Z,102427.328125
2023-02-11T04:02:29.319Z,102426.81640625
2023-02-11T04:03:29.554Z,102425.05078125
2023-02-11T04:04:29.332Z,102421.73046875
2023-02-11T04:05:29.671Z,102423.71484375
2023-02-11T04:06:31.752Z,102427.0859375
2023-02-11T04:07:29.439Z,102434.484375
2023-02-11T04:08:29.337Z,102439.88671875
2023-02-11T04:09:29.424Z,102441.94140625
2023-02-11T04:10:29.802Z,102443.5625
2023-02-11T04:11:29.339Z,102446.23046875
2023-02-11T04:12:29.450Z,102449.12109375
2023-02-11T04:13:29.408Z,102450.57421875
2023-02-11T04:14:29.401Z,102451.58203125
2023-02-11T04:15:29.669Z,102451.33203125
2023-02-11T04:16:29.490Z,102454.33984375
2023-02-11T04:17:31.683Z,102455.98046875
2023-02-11T04:18:29.332Z,102454.53515625
2023-02-11T04:19:29.344Z,102461.58203125
2023-02-11T04:20:29.683Z,102460.56640625
2023-02-11T04:21:29.492Z,102461.4296875
2023-02-11T04:22:29.366Z,102459.66015625
2023-02-11T04:23:29.404Z,102464.8515625
2023-02-11T04:24:29.455Z,102463.20703125
2023-02-11T04:25:29.681Z,102468.92578125
2023-02-11T04:26:29.381Z,102471.13671875
2023-02-11T04:27:29.411Z,102471.87890625
2023-02-11T04:28:31.705Z,102473.9765625
2023-02-11T04:29:29.452Z,102477.69921875
2023-02-11T04:30:29.716Z,102480.8359375
2023-02-11T04:31:29.407Z,102478.43359375
2023-02-11T04:32:29.416Z,102484.09375
2023-02-11T04:33:29.411Z,102480.2421875
2023-02-11T04:34:29.303Z,102477.50390625
2023-02-11T04:35:29.674Z,102474.96875
2023-02-11T04:36:29.427Z,102470.59765625
2023-02-11T04:37:29.514Z,102471.34375
2023-02-11T04:38:29.344Z,102468.76171875
2023-02-11T04:39:31.645Z,102473.046875
2023-02-11T04:40:29.676Z,102475.1953125
2023-02-11T04:41:29.447Z,102468.9609375
2023-02-11T04:42:29.360Z,102462.5703125
2023-02-11T04:43:29.342Z,102466.0546875
2023-02-11T04:44:29.391Z,102462.09375
2023-02-11T04:45:29.682Z,102461.29296875
2023-02-11T04:46:29.361Z,102455.6796875
2023-02-11T04:47:29.434Z,102453.578125
2023-02-11T04:48:29.420Z,102450.69921875
2023-02-11T04:49:29.424Z,102448.19140625
2023-02-11T04:50:34.188Z,102449.484375
2023-02-11T04:51:29.400Z,102446.96484375
2023-02-11T04:52:29.415Z,102444.12109375
2023-02-11T04:53:29.418Z,102445.9453125
2023-02-11T04:54:29.390Z,102448.17578125
2023-02-11T04:55:29.674Z,102443.546875
2023-02-11T04:56:29.452Z,102442.9453125
2023-02-11T04:57:29.370Z,102443.92578125
2023-02-11T04:58:29.385Z,102441.6640625
2023-02-11T04:59:29.380Z,102446.63671875
2023-02-11T05:00:29.442Z,102446.82421875
2023-02-11T05:01:31.736Z,102444.92578125
2023-02-11T05:02:29.442Z,102440.9921875
2023-02-11T05:03:29.423Z,102438.6796875
2023-02-11T05:04:29.409Z,102437.91015625
2023-02-11T05:05:29.675Z,102437.03515625
2023-02-11T05:06:29.400Z,102440.22265625
2023-02-11T05:07:29.326Z,102437.38671875
2023-02-11T05:08:29.320Z,102434.2578125
2023-02-11T05:09:29.319Z,102434.73828125
2023-02-11T05:10:29.670Z,102431.984375
2023-02-11T05:11:29.411Z,102430.0390625
2023-02-11T05:12:31.721Z,102426.4609375
2023-02-11T05:13:29.388Z,102425.08203125
2023-02-11T05:14:29.414Z,102424.6640625
2023-02-11T05:15:29.683Z,102428.41796875
2023-02-11T05:16:29.462Z,102426.73828125
2023-02-11T05:17:29.314Z,102423.9765625
2023-02-11T05:18:29.516Z,102424.51953125
2023-02-11T05:19:29.430Z,102420.7890625
2023-02-11T05:20:29.679Z,102426.13671875
2023-02-11T05:21:29.410Z,102425.046875
2023-02-11T05:22:29.355Z,102424.01171875
2023-02-11T05:23:31.792Z,102425.58984375
2023-02-11T05:24:29.316Z,102428.33203125
2023-02-11T05:25:29.452Z,102431.32421875
2023-02-11T05:26:29.416Z,102438.171875
2023-02-11T05:27:29.406Z,102442.9921875
2023-02-11T05:28:29.410Z,102439.765625
2023-02-11T05:29:29.406Z,102439.3359375
2023-02-11T05:30:29.728Z,102436.328125
2023-02-11T05:31:29.421Z,102444.84765625
2023-02-11T05:32:29.390Z,102444.03125
2023-02-11T05:33:29.342Z,102444.1015625
2023-02-11T05:34:31.734Z,102443.26171875
2023-02-11T05:35:29.677Z,102443.02734375
2023-02-11T05:36:31.644Z,102448.84375
2023-02-11T05:37:29.373Z,102442.41015625
2023-02-11T05:38:29.415Z,102446.58984375
2023-02-11T05:39:29.430Z,102447.9375
2023-02-11T05:40:29.672Z,102442.19921875
2023-02-11T05:41:29.420Z,102441.36328125
2023-02-11T05:42:29.329Z,102447.4296875
2023-02-11T05:43:29.463Z,102448.328125
2023-02-11T05:44:29.342Z,102447.55859375
2023-02-11T05:45:34.123Z,102449.4453125
2023-02-11T05:46:29.463Z,102451.58203125
2023-02-11T05:47:29.340Z,102457.20703125
2023-02-11T05:48:29.318Z,102456.33203125
2023-02-11T05:49:29.307Z,102458.87109375
2023-02-11T05:50:29.677Z,102460.62890625
2023-02-11T05:51:29.441Z,102461.984375
2023-02-11T05:52:29.343Z,102460.43359375
2023-02-11T05:53:29.474Z,102458.421875
2023-02-11T05:54:29.373Z,102457.5703125
2023-02-11T05:55:29.670Z,102455.83203125
2023-02-11T05:56:31.671Z,102461.13671875
2023-02-11T05:57:29.339Z,102463.44921875
2023-02-11T05:58:29.376Z,102463.484375
2023-02-11T05:59:29.328Z,102459.7109375
2023-02-11T06:00:29.684Z,102459.2265625
2023-02-11T06:01:29.408Z,102456.421875
2023-02-11T06:02:29.509Z,102447.71484375
2023-02-11T06:03:29.458Z,102442.1171875
2023-02-11T06:04:29.349Z,102440.2578125
2023-02-11T06:05:29.672Z,102445.59765625
2023-02-11T06:06:29.423Z,102440.08984375
2023-02-11T06:07:31.716Z,102438.63671875
2023-02-11T06:08:29.451Z,102437.125
2023-02-11T06:09:29.453Z,102433.11328125
2023-02-11T06:10:29.338Z,102426.79296875
2023-02-11T06:11:29.399Z,102431.8359375
2023-02-11T06:12:29.414Z,102433.31640625
2023-02-11T06:13:29.414Z,102440.22265625
2023-02-11T06:14:29.348Z,102442.13671875
2023-02-11T06:15:29.670Z,102445.73046875
2023-02-11T06:16:29.421Z,102441.25390625
2023-02-11T06:17:29.346Z,102447.23828125
2023-02-11T06:18:31.721Z,102445.5859375
2023-02-11T06:19:29.427Z,102451.13671875
2023-02-11T06:20:29.664Z,102456.91015625
2023-02-11T06:21:42.937Z,102461.58984375
2023-02-11T06:22:29.451Z,102462.57421875
2023-02-11T06:23:30.566Z,102460.6796875
2023-02-11T06:24:54.661Z,102457.578125
2023-02-11T06:25:29.682Z,102452.07421875
2023-02-11T06:26:29.454Z,102456.140625
2023-02-11T06:27:29.374Z,102451.30859375
2023-02-11T06:28:29.512Z,102447.94921875
2023-02-11T06:29:31.726Z,102443.390625
2023-02-11T06:30:29.678Z,102442.73828125
2023-02-11T06:31:29.433Z,102437.390625
2023-02-11T06:32:43.505Z,102436.8828125
2023-02-11T06:33:29.327Z,102436.04296875
2023-02-11T06:34:29.398Z,102440.984375
2023-02-11T06:35:29.447Z,102440.94921875
2023-02-11T06:36:29.397Z,102442.64453125
2023-02-11T06:37:29.424Z,102440.6328125
2023-02-11T06:38:29.454Z,102435.03125
2023-02-11T06:39:29.421Z,102432.94140625
2023-02-11T06:40:34.097Z,102432.01953125
2023-02-11T06:41:29.431Z,102433.06640625
2023-02-11T06:42:29.386Z,102435.234375
2023-02-11T06:43:29.323Z,102435.99609375
2023-02-11T06:44:29.376Z,102437.1484375
2023-02-11T06:45:29.678Z,102442.90234375
2023-02-11T06:46:29.353Z,102443.1640625
2023-02-11T06:47:29.410Z,102446.140625
2023-02-11T06:48:29.431Z,102445.48828125
2023-02-11T06:49:29.377Z,102445.2890625
2023-02-11T06:50:29.676Z,102442.265625
2023-02-11T06:51:31.705Z,102438.51953125
2023-02-11T06:52:29.381Z,102443.08984375
2023-02-11T06:53:29.433Z,102437.09765625
2023-02-11T06:54:29.423Z,102439.2734375
2023-02-11T06:55:29.678Z,102441.18359375
2023-02-11T06:56:29.419Z,102438.90234375
2023-02-11T06:57:29.317Z,102439.5546875
2023-02-11T06:58:29.422Z,102436.47265625
2023-02-11T06:59:29.392Z,102436.421875
2023-02-11T07:00:29.676Z,102436.2265625
2023-02-11T07:01:29.400Z,102435.40625
2023-02-11T07:02:31.743Z,102432.04296875
2023-02-11T07:03:29.408Z,102430.83203125
2023-02-11T07:04:29.404Z,102428.01953125
2023-02-11T07:05:29.817Z,102427.22265625
2023-02-11T07:06:29.451Z,102424.6875
2023-02-11T07:07:30.054Z,102422.92578125
2023-02-11T07:08:29.384Z,102416.73046875
2023-02-11T07:09:29.330Z,102423.12890625
2023-02-11T07:10:29.688Z,102422.54296875
2023-02-11T07:11:29.441Z,102426.734375
2023-02-11T07:12:29.401Z,102424.828125
2023-02-11T07:13:31.731Z,102420.53125
2023-02-11T07:14:29.462Z,102423.3515625
2023-02-11T07:15:29.669Z,102428.10546875
2023-02-11T07:16:29.392Z,102429.6640625
2023-02-11T07:17:29.320Z,102430.05078125
2023-02-11T07:18:29.316Z,102432.18359375
2023-02-11T07:19:29.326Z,102432.5390625
2023-02-11T07:20:29.517Z,102437.6484375
2023-02-11T07:21:29.341Z,102443.3203125
2023-02-11T07:22:29.430Z,102438.82421875
2023-02-11T07:23:29.330Z,102441.0625
2023-02-11T07:24:31.706Z,102439.53515625
2023-02-11T07:25:29.691Z,102438.05078125
2023-02-11T07:26:29.319Z,102435.2578125
2023-02-11T07:27:29.400Z,102434.6796875
2023-02-11T07:28:29.400Z,102436.10546875
2023-02-11T07:29:29.324Z,102434.5234375
2023-02-11T07:30:29.685Z,102431.3203125
2023-02-11T07:31:29.507Z,102434.265625
2023-02-11T07:32:29.446Z,102437.09375
2023-02-11T07:33:29.340Z,102429.0078125
2023-02-11T07:34:29.379Z,102423.546875
2023-02-11T07:35:34.146Z,102422.875
2023-02-11T07:36:29.360Z,102420.5703125
2023-02-11T07:37:29.315Z,102420.73828125
2023-02-11T07:38:29.347Z,102425.15234375
2023-02-11T07:39:29.330Z,102432.2890625
2023-02-11T07:40:29.683Z,102431.171875
2023-02-11T07:41:29.301Z,102430.2109375
2023-02-11T07:42:29.432Z,102428.12109375
2023-02-11T07:43:29.326Z,102427.27734375
2023-02-11T07:44:29.337Z,102428.984375
2023-02-11T07:45:29.437Z,102434.9375
2023-02-11T07:46:31.761Z,102439.91796875
2023-02-11T07:47:29.317Z,102445.546875
2023-02-11T07:48:29.452Z,102450.578125
2023-02-11T07:49:29.434Z,102452.25
2023-02-11T07:50:29.674Z,102446.2578125
2023-02-11T07:51:29.405Z,102450.1953125
2023-02-11T07:52:29.324Z,102443.3046875
2023-02-11T07:53:29.445Z,102444.36328125
2023-02-11T07:54:29.314Z,102447.06640625
2023-02-11T07:55:29.673Z,102453.01171875
2023-02-11T07:56:29.474Z,102450.58984375
2023-02-11T07:57:31.649Z,102452.59765625
2023-02-11T07:58:29.301Z,102450.890625
2023-02-11T07:59:29.347Z,102450.15234375
2023-02-11T08:00:29.680Z,102449.6328125
2023-02-11T08:01:29.383Z,102453.61328125
2023-02-11T08:02:29.410Z,102458.6171875
2023-02-11T08:03:29.357Z,102458.6875
2023-02-11T08:04:29.353Z,102466.8984375
2023-02-11T08:05:29.696Z,102469.375
2023-02-11T08:06:29.399Z,102471.32421875
2023-02-11T08:07:29.412Z,102473.1484375
2023-02-11T08:08:31.635Z,102467.34375
2023-02-11T08:09:29.387Z,102471.9375
2023-02-11T08:10:29.672Z,102462.7890625
2023-02-11T08:11:29.424Z,102463.23046875
2023-02-11T08:12:29.370Z,102460.46875
2023-02-11T08:13:29.372Z,102464.10546875
2023-02-11T08:14:29.388Z,102462.2890625
2023-02-11T08:15:29.676Z,102465.01953125
2023-02-11T08:16:29.475Z,102467.17578125
2023-02-11T08:17:29.377Z,102468.48046875
2023-02-11T08:18:29.330Z,102463.92578125
2023-02-11T08:19:34.838Z,102465.66796875
2023-02-11T08:20:29.659Z,102468.3515625
2023-02-11T08:21:29.478Z,102467.5
2023-02-11T08:22:29.313Z,102469.52734375
2023-02-11T08:23:29.437Z,102467.3359375
2023-02-11T08:24:29.388Z,102469.48828125
2023-02-11T08:25:29.579Z,102471.55078125
2023-02-11T08:26:29.426Z,102469.78125
2023-02-11T08:27:29.376Z,102469.640625
2023-02-11T08:28:29.490Z,102473.33984375
2023-02-11T08:29:29.410Z,102473.97265625
2023-02-11T08:30:32.076Z,102472.47265625
2023-02-11T08:31:29.460Z,102476.7734375
2023-02-11T08:32:29.449Z,102482.7734375
2023-02-11T08:33:29.397Z,102486.2109375
2023-02-11T08:34:29.322Z,102485.58203125
2023-02-11T08:35:29.665Z,102486.4921875
2023-02-11T08:36:29.459Z,102488.796875
2023-02-11T08:37:32.060Z,102491.96875
2023-02-11T08:38:29.432Z,102494.03515625
2023-02-11T08:39:29.298Z,102495.57421875
2023-02-11T08:40:29.676Z,102496.16015625
2023-02-11T08:41:31.690Z,102496.3671875
2023-02-11T08:42:29.404Z,102496.375
2023-02-11T08:43:29.380Z,102495.03125
2023-02-11T08:44:29.417Z,102493.984375
2023-02-11T08:45:29.824Z,102493.33984375
2023-02-11T08:46:29.507Z,102494.3125
2023-02-11T08:47:29.415Z,102491.51171875
2023-02-11T08:48:29.326Z,102491.9375
2023-02-11T08:49:29.308Z,102489.12890625
2023-02-11T08:50:29.661Z,102491.40625
2023-02-11T08:51:29.376Z,102494.09375
2023-02-11T08:52:31.732Z,102496.5
2023-02-11T08:53:29.424Z,102497.1953125
2023-02-11T08:54:29.288Z,102501.92578125
2023-02-11T08:55:29.347Z,102498.66015625
2023-02-11T08:56:29.427Z,102508.6796875
2023-02-11T08:57:29.405Z,102503.35546875
2023-02-11T08:58:29.318Z,102504.734375
2023-02-11T08:59:29.402Z,102502.515625
2023-02-11T09:00:29.668Z,102509.6015625
2023-02-11T09:01:29.478Z,102508.41015625
2023-02-11T09:02:29.341Z,102509.82421875
2023-02-11T09:03:31.711Z,102506.7265625
2023-02-11T09:04:29.419Z,102498.140625
2023-02-11T09:05:29.658Z,102494.37890625
2023-02-11T09:06:29.334Z,102498.01171875
2023-02-11T09:07:29.344Z,102494.1875
2023-02-11T09:08:29.429Z,102496.29296875
2023-02-11T09:09:29.376Z,102502.7109375
2023-02-11T09:10:29.664Z,102502.1015625
2023-02-11T09:11:29.347Z,102500.67578125
2023-02-11T09:12:29.445Z,102505.2890625
2023-02-11T09:13:29.446Z,102509.76953125
2023-02-11T09:14:31.680Z,102510.125
2023-02-11T09:15:30.005Z,102515.58203125
2023-02-11T09:16:29.487Z,102515.375
2023-02-11T09:17:29.339Z,102513.828125
2023-02-11T09:18:29.425Z,102514.35546875
2023-02-11T09:19:29.387Z,102512.2265625
2023-02-11T09:20:29.421Z,102514.3828125
2023-02-11T09:21:29.417Z,102511.45703125
2023-02-11T09:22:29.319Z,102510.3125
2023-02-11T09:23:29.406Z,102508.765625
2023-02-11T09:24:29.423Z,102506.76171875
2023-02-11T09:25:34.129Z,102504.92578125
2023-02-11T09:26:29.364Z,102504.06640625
2023-02-11T09:27:29.388Z,102507.953125
2023-02-11T09:28:29.339Z,102510.69921875
2023-02-11T09:29:29.365Z,102516.9921875
2023-02-11T09:30:29.811Z,102515.7890625
2023-02-11T09:31:29.496Z,102518.6953125
2023-02-11T09:32:29.365Z,102523.22265625
2023-02-11T09:33:29.344Z,102522.19140625
2023-02-11T09:34:29.442Z,102520.19140625
2023-02-11T09:35:29.663Z,102521.29296875
2023-02-11T09:36:31.767Z,102522.453125
2023-02-11T09:37:29.374Z,102524.40234375
2023-02-11T09:38:29.317Z,102527.75
2023-02-11T09:39:29.469Z,102528.94921875
2023-02-11T09:40:29.681Z,102526.3125
2023-02-11T09:41:29.450Z,102531.08203125
2023-02-11T09:42:29.417Z,102534.2265625
2023-02-11T09:43:29.449Z,102536.80078125
2023-02-11T09:44:29.320Z,102537.625
2023-02-11T09:45:29.672Z,102533.85546875
2023-02-11T09:46:29.467Z,102535.46484375
2023-02-11T09:47:31.754Z,102536.37109375
2023-02-11T09:48:29.335Z,102536.19921875
2023-02-11T09:49:29.398Z,102532.3125
2023-02-11T09:50:29.668Z,102531.44921875
2023-02-11T09:51:29.456Z,102529.6171875
2023-02-11T09:52:29.433Z,102526.75
2023-02-11T09:53:29.351Z,102525.56640625
2023-02-11T09:54:29.400Z,102521.1015625
2023-02-11T09:55:29.677Z,102523.2890625
2023-02-11T09:56:29.410Z,102523.0390625
2023-02-11T09:57:29.454Z,102520.29296875